createdAt,value
2023-05-17T00:00:54.308Z,71.87
2023-05-17T00:01:54.289Z,72.19
2023-05-17T00:02:54.301Z,70.58
2023-05-17T00:03:54.290Z,69.13
2023-05-17T00:04:54.310Z,72.51
2023-05-17T00:05:54.275Z,72.67
2023-05-17T00:06:54.254Z,71.38
2023-05-17T00:07:54.364Z,72.51
2023-05-17T00:08:54.224Z,72.51
2023-05-17T00:09:54.216Z,72.03
2023-05-17T00:10:54.226Z,71.06
2023-05-17T00:11:54.208Z,70.90
2023-05-17T00:12:54.189Z,71.38
2023-05-17T00:13:54.264Z,72.03
2023-05-17T00:14:54.172Z,71.22
2023-05-17T00:15:54.158Z,71.38
2023-05-17T00:16:54.158Z,70.42
2023-05-17T00:17:54.220Z,70.42
2023-05-17T00:18:54.258Z,71.54
2023-05-17T00:19:54.136Z,71.38
2023-05-17T00:20:54.118Z,71.54
2023-05-17T00:21:54.115Z,72.35
2023-05-17T00:22:54.096Z,73.32
2023-05-17T00:23:54.084Z,70.58
2023-05-17T00:24:54.068Z,71.06
2023-05-17T00:25:54.066Z,72.51
2023-05-17T00:26:54.082Z,73.64
2023-05-17T00:27:54.048Z,70.90
2023-05-17T00:28:54.035Z,70.90
2023-05-17T00:29:54.020Z,70.25
2023-05-17T00:30:54.022Z,70.90
2023-05-17T00:31:54.004Z,70.74
2023-05-17T00:32:54.050Z,71.06
2023-05-17T00:33:53.995Z,70.42
2023-05-17T00:34:54.015Z,70.74
2023-05-17T00:35:53.982Z,70.25
2023-05-17T00:36:53.967Z,71.87
2023-05-17T00:37:53.949Z,71.22
2023-05-17T00:38:53.935Z,71.06
2023-05-17T00:39:53.936Z,70.90
2023-05-17T00:40:53.948Z,70.58
2023-05-17T00:41:53.910Z,70.74
2023-05-17T00:42:53.896Z,70.25
2023-05-17T00:43:53.898Z,70.90
2023-05-17T00:44:53.900Z,71.06
2023-05-17T00:45:53.888Z,71.38
2023-05-17T00:46:53.849Z,71.70
2023-05-17T00:47:54.915Z,71.22
2023-05-17T00:48:53.833Z,71.06
2023-05-17T00:49:53.832Z,71.06
2023-05-17T00:50:53.821Z,72.35
2023-05-17T00:51:53.800Z,72.19
2023-05-17T00:52:53.805Z,71.22
2023-05-17T00:53:53.865Z,71.06
2023-05-17T00:54:54.789Z,70.58
2023-05-17T00:55:53.768Z,70.90
2023-05-17T00:56:53.755Z,72.19
2023-05-17T00:57:53.749Z,70.90
2023-05-17T00:58:53.752Z,70.90
2023-05-17T00:59:53.729Z,71.38
2023-05-17T01:00:53.717Z,71.54
2023-05-17T01:01:53.703Z,69.93
2023-05-17T01:02:53.746Z,70.90
2023-05-17T01:03:53.803Z,71.54
2023-05-17T01:04:53.844Z,70.90
2023-05-17T01:05:53.673Z,71.06
2023-05-17T01:06:53.655Z,70.90
2023-05-17T01:07:53.667Z,71.38
2023-05-17T01:08:53.650Z,72.35
2023-05-17T01:09:53.648Z,71.54
2023-05-17T01:10:53.616Z,72.99
2023-05-17T01:11:53.613Z,69.93
2023-05-17T01:12:53.624Z,72.99
2023-05-17T01:13:53.592Z,71.87
2023-05-17T01:14:53.610Z,70.90
2023-05-17T01:15:53.583Z,71.06
2023-05-17T01:16:53.583Z,72.03
2023-05-17T01:17:53.915Z,72.35
2023-05-17T01:18:53.622Z,71.87
2023-05-17T01:19:53.618Z,71.38
2023-05-17T01:20:53.522Z,70.58
2023-05-17T01:21:53.542Z,71.70
2023-05-17T01:22:53.528Z,71.38
2023-05-17T01:23:53.504Z,71.22
2023-05-17T01:24:53.493Z,72.03
2023-05-17T01:25:53.485Z,73.48
2023-05-17T01:26:53.581Z,71.70
2023-05-17T01:27:53.462Z,71.70
2023-05-17T01:28:53.470Z,70.74
2023-05-17T01:29:53.447Z,71.06
2023-05-17T01:30:53.436Z,72.03
2023-05-17T01:31:53.438Z,70.58
2023-05-17T01:32:53.465Z,70.42
2023-05-17T01:33:53.660Z,71.38
2023-05-17T01:34:53.402Z,71.87
2023-05-17T01:35:53.404Z,71.70
2023-05-17T01:36:53.396Z,70.90
2023-05-17T01:37:53.380Z,71.70
2023-05-17T01:38:53.364Z,73.48
2023-05-17T01:39:53.353Z,72.83
2023-05-17T01:40:53.362Z,70.90
2023-05-17T01:41:53.334Z,72.03
2023-05-17T01:42:53.328Z,73.15
2023-05-17T01:43:53.306Z,70.74
2023-05-17T01:44:53.300Z,70.74
2023-05-17T01:45:53.319Z,71.54
2023-05-17T01:46:53.281Z,71.22
2023-05-17T01:47:53.481Z,71.38
2023-05-17T01:48:53.299Z,71.06
2023-05-17T01:49:53.277Z,70.74
2023-05-17T01:50:53.253Z,69.45
2023-05-17T01:51:53.232Z,71.06
2023-05-17T01:52:53.228Z,72.83
2023-05-17T01:53:53.214Z,71.54
2023-05-17T01:54:53.220Z,70.58
2023-05-17T01:55:53.205Z,71.87
2023-05-17T01:56:53.192Z,70.58
2023-05-17T01:57:53.188Z,69.93
2023-05-17T01:58:53.170Z,71.70
2023-05-17T01:59:53.235Z,71.70
2023-05-17T02:00:53.149Z,71.87
2023-05-17T02:01:53.138Z,72.51
2023-05-17T02:02:53.148Z,73.15
2023-05-17T02:03:53.179Z,72.99
2023-05-17T02:04:53.199Z,71.38
2023-05-17T02:05:53.202Z,72.19
2023-05-17T02:06:53.132Z,71.38
2023-05-17T02:07:53.114Z,70.74
2023-05-17T02:08:53.116Z,70.90
2023-05-17T02:09:53.083Z,72.99
2023-05-17T02:10:53.060Z,71.70
2023-05-17T02:11:53.045Z,70.90
2023-05-17T02:12:53.034Z,71.54
2023-05-17T02:13:53.052Z,72.03
2023-05-17T02:14:53.030Z,71.70
2023-05-17T02:15:53.019Z,71.06
2023-05-17T02:16:53.013Z,72.35
2023-05-17T02:17:53.086Z,71.22
2023-05-17T02:18:53.148Z,71.38
2023-05-17T02:19:52.983Z,72.51
2023-05-17T02:20:52.968Z,71.70
2023-05-17T02:21:53.115Z,71.22
2023-05-17T02:22:53.000Z,70.90
2023-05-17T02:23:52.952Z,71.87
2023-05-17T02:24:52.935Z,71.70
2023-05-17T02:25:52.935Z,71.54
2023-05-17T02:26:52.913Z,71.87
2023-05-17T02:27:52.919Z,71.06
2023-05-17T02:28:52.902Z,71.54
2023-05-17T02:29:52.885Z,71.54
2023-05-17T02:30:52.880Z,71.22
2023-05-17T02:31:52.871Z,71.70
2023-05-17T02:32:52.936Z,71.38
2023-05-17T02:33:53.022Z,70.58
2023-05-17T02:34:52.844Z,71.38
2023-05-17T02:35:52.833Z,70.90
2023-05-17T02:36:52.833Z,70.42
2023-05-17T02:37:52.906Z,71.06
2023-05-17T02:38:52.817Z,72.51
2023-05-17T02:39:52.821Z,71.38
2023-05-17T02:40:52.785Z,71.87
2023-05-17T02:41:52.785Z,71.22
2023-05-17T02:42:53.785Z,75.09
2023-05-17T02:43:52.759Z,76.22
2023-05-17T02:44:52.770Z,71.87
2023-05-17T02:45:52.749Z,71.87
2023-05-17T02:46:52.774Z,72.51
2023-05-17T02:47:53.760Z,73.32
2023-05-17T02:48:52.759Z,72.99
2023-05-17T02:49:52.701Z,71.38
2023-05-17T02:50:52.711Z,72.51
2023-05-17T02:51:52.699Z,72.99
2023-05-17T02:52:52.723Z,72.51
2023-05-17T02:53:52.746Z,71.38
2023-05-17T02:54:52.662Z,72.67
2023-05-17T02:55:52.677Z,72.03
2023-05-17T02:56:52.698Z,72.03
2023-05-17T02:57:52.630Z,72.51
2023-05-17T02:58:52.632Z,72.19
2023-05-17T02:59:52.614Z,73.15
2023-05-17T03:00:52.662Z,74.77
2023-05-17T03:01:52.584Z,74.28
2023-05-17T03:02:52.690Z,71.54
2023-05-17T03:03:52.748Z,72.03
2023-05-17T03:04:52.631Z,72.19
2023-05-17T03:05:52.566Z,71.06
2023-05-17T03:06:52.545Z,71.70
2023-05-17T03:07:52.531Z,72.51
2023-05-17T03:08:52.523Z,74.44
2023-05-17T03:09:52.609Z,73.48
2023-05-17T03:10:52.504Z,74.12
2023-05-17T03:11:52.506Z,73.48
2023-05-17T03:12:52.495Z,72.99
2023-05-17T03:13:52.482Z,72.67
2023-05-17T03:14:52.482Z,72.51
2023-05-17T03:15:52.466Z,72.99
2023-05-17T03:16:52.464Z,73.96
2023-05-17T03:17:52.510Z,72.03
2023-05-17T03:18:52.562Z,73.80
2023-05-17T03:19:52.588Z,75.25
2023-05-17T03:20:52.408Z,74.28
2023-05-17T03:21:52.410Z,74.28
2023-05-17T03:22:52.395Z,74.12
2023-05-17T03:23:52.403Z,73.96
2023-05-17T03:24:52.387Z,72.51
2023-05-17T03:25:52.586Z,72.99
2023-05-17T03:26:52.350Z,74.60
2023-05-17T03:27:52.397Z,73.48
2023-05-17T03:28:52.379Z,72.67
2023-05-17T03:29:52.332Z,73.48
2023-05-17T03:30:52.399Z,74.12
2023-05-17T03:31:52.325Z,74.28
2023-05-17T03:32:52.422Z,75.73
2023-05-17T03:33:52.397Z,74.28
2023-05-17T03:34:52.287Z,76.86
2023-05-17T03:35:52.268Z,74.93
2023-05-17T03:36:52.333Z,74.28
2023-05-17T03:37:52.297Z,73.15
2023-05-17T03:38:52.260Z,73.96
2023-05-17T03:39:52.242Z,75.09
2023-05-17T03:40:52.237Z,74.77
2023-05-17T03:41:52.304Z,74.93
2023-05-17T03:42:52.233Z,73.96
2023-05-17T03:43:52.219Z,72.99
2023-05-17T03:44:52.202Z,73.32
2023-05-17T03:45:52.191Z,73.96
2023-05-17T03:46:52.173Z,74.12
2023-05-17T03:47:52.236Z,74.12
2023-05-17T03:48:52.200Z,75.41
2023-05-17T03:49:52.155Z,74.60
2023-05-17T03:50:52.138Z,74.12
2023-05-17T03:51:52.138Z,75.25
2023-05-17T03:52:52.123Z,76.22
2023-05-17T03:53:52.120Z,75.09
2023-05-17T03:54:52.101Z,75.25
2023-05-17T03:55:52.097Z,74.28
2023-05-17T03:56:52.093Z,74.44
2023-05-17T03:57:52.314Z,74.12
2023-05-17T03:58:52.064Z,74.44
2023-05-17T03:59:52.050Z,75.57
2023-05-17T04:00:52.041Z,73.32
2023-05-17T04:01:52.039Z,74.77
2023-05-17T04:02:52.053Z,74.28
2023-05-17T04:03:52.026Z,75.57
2023-05-17T04:04:52.032Z,74.93
2023-05-17T04:05:52.006Z,75.41
2023-05-17T04:06:51.996Z,75.57
2023-05-17T04:07:51.968Z,75.73
2023-05-17T04:08:51.995Z,75.89
2023-05-17T04:09:51.961Z,73.64
2023-05-17T04:10:51.957Z,74.28
2023-05-17T04:11:51.943Z,75.89
2023-05-17T04:12:52.007Z,74.93
2023-05-17T04:13:52.005Z,76.05
2023-05-17T04:14:51.911Z,75.57
2023-05-17T04:15:51.903Z,74.60
2023-05-17T04:16:51.889Z,73.32
2023-05-17T04:17:51.916Z,74.28
2023-05-17T04:18:51.940Z,73.80
2023-05-17T04:19:52.029Z,74.12
2023-05-17T04:20:51.871Z,74.60
2023-05-17T04:21:51.846Z,75.73
2023-05-17T04:22:51.832Z,74.28
2023-05-17T04:23:51.828Z,75.57
2023-05-17T04:24:51.825Z,76.70
2023-05-17T04:25:51.814Z,77.50
2023-05-17T04:26:51.798Z,74.60
2023-05-17T04:27:51.853Z,75.41
2023-05-17T04:28:51.792Z,73.96
2023-05-17T04:29:52.046Z,74.44
2023-05-17T04:30:51.760Z,75.25
2023-05-17T04:31:51.755Z,76.38
2023-05-17T04:32:51.769Z,76.54
2023-05-17T04:33:51.758Z,75.73
2023-05-17T04:34:51.735Z,74.60
2023-05-17T04:35:51.712Z,74.28
2023-05-17T04:36:51.696Z,74.28
2023-05-17T04:37:51.707Z,75.57
2023-05-17T04:38:51.693Z,75.09
2023-05-17T04:39:51.677Z,73.48
2023-05-17T04:40:51.664Z,74.60
2023-05-17T04:41:51.658Z,74.12
2023-05-17T04:42:51.662Z,74.60
2023-05-17T04:43:51.656Z,77.50
2023-05-17T04:44:51.651Z,76.05
2023-05-17T04:45:51.693Z,75.41
2023-05-17T04:46:52.608Z,74.44
2023-05-17T04:47:51.633Z,76.38
2023-05-17T04:48:51.722Z,73.96
2023-05-17T04:49:51.581Z,74.93
2023-05-17T04:50:51.574Z,74.12
2023-05-17T04:51:51.564Z,74.77
2023-05-17T04:52:51.566Z,75.09
2023-05-17T04:53:51.559Z,75.25
2023-05-17T04:54:51.555Z,77.99
2023-05-17T04:55:51.519Z,75.25
2023-05-17T04:56:51.509Z,74.44
2023-05-17T04:57:51.518Z,75.57
2023-05-17T04:58:52.856Z,74.44
2023-05-17T04:59:52.481Z,73.64
2023-05-17T05:00:51.471Z,75.25
2023-05-17T05:01:51.594Z,76.70
2023-05-17T05:02:51.499Z,75.09
2023-05-17T05:03:51.526Z,75.41
2023-05-17T05:04:51.455Z,75.89
2023-05-17T05:05:51.421Z,75.73
2023-05-17T05:06:51.419Z,75.89
2023-05-17T05:07:51.404Z,75.09
2023-05-17T05:08:51.386Z,74.60
2023-05-17T05:09:51.378Z,75.89
2023-05-17T05:10:51.368Z,74.93
2023-05-17T05:11:51.384Z,76.54
2023-05-17T05:12:51.351Z,76.05
2023-05-17T05:13:51.346Z,74.93
2023-05-17T05:14:51.327Z,75.25
2023-05-17T05:15:51.320Z,75.73
2023-05-17T05:16:51.360Z,75.25
2023-05-17T05:17:51.522Z,74.77
2023-05-17T05:18:51.497Z,75.89
2023-05-17T05:19:51.308Z,76.22
2023-05-17T05:20:51.282Z,76.54
2023-05-17T05:21:51.285Z,75.57
2023-05-17T05:22:51.263Z,74.93
2023-05-17T05:23:51.268Z,76.70
2023-05-17T05:24:51.246Z,76.38
2023-05-17T05:25:51.246Z,75.41
2023-05-17T05:26:51.279Z,75.89
2023-05-17T05:27:51.226Z,75.73
2023-05-17T05:28:51.197Z,74.60
2023-05-17T05:29:51.250Z,74.60
2023-05-17T05:30:51.184Z,74.60
2023-05-17T05:31:51.161Z,74.60
2023-05-17T05:32:51.196Z,73.80
2023-05-17T05:33:51.340Z,73.64
2023-05-17T05:34:51.147Z,74.28
2023-05-17T05:35:51.144Z,73.96
2023-05-17T05:36:51.124Z,74.77
2023-05-17T05:37:51.121Z,75.25
2023-05-17T05:38:51.106Z,75.57
2023-05-17T05:39:51.116Z,74.12
2023-05-17T05:40:51.087Z,74.60
2023-05-17T05:41:51.067Z,75.25
2023-05-17T05:42:51.065Z,74.44
2023-05-17T05:43:51.052Z,75.41
2023-05-17T05:44:51.053Z,76.54
2023-05-17T05:45:51.038Z,76.05
2023-05-17T05:46:51.023Z,75.09
2023-05-17T05:47:51.072Z,77.02
2023-05-17T05:48:51.022Z,76.54
2023-05-17T05:49:51.085Z,75.89
2023-05-17T05:50:50.994Z,76.70
2023-05-17T05:51:50.973Z,76.54
2023-05-17T05:52:50.971Z,74.44
2023-05-17T05:53:50.969Z,74.60
2023-05-17T05:54:50.959Z,73.64
2023-05-17T05:55:50.946Z,72.83
2023-05-17T05:56:50.921Z,72.67
2023-05-17T05:57:50.922Z,73.15
2023-05-17T05:58:50.923Z,74.28
2023-05-17T05:59:50.893Z,76.05
2023-05-17T06:00:50.891Z,74.60
2023-05-17T06:01:50.877Z,73.15
2023-05-17T06:02:50.919Z,76.22
2023-05-17T06:03:50.865Z,74.60
2023-05-17T06:04:50.851Z,75.41
2023-05-17T06:05:51.040Z,73.15
2023-05-17T06:06:51.014Z,73.15
2023-05-17T06:07:50.823Z,74.60
2023-05-17T06:08:50.814Z,72.67
2023-05-17T06:09:50.796Z,73.64
2023-05-17T06:10:50.793Z,73.48
2023-05-17T06:11:50.769Z,74.28
2023-05-17T06:12:50.775Z,76.22
2023-05-17T06:13:50.759Z,74.12
2023-05-17T06:14:50.865Z,75.41
2023-05-17T06:15:50.737Z,74.12
2023-05-17T06:16:50.731Z,76.05
2023-05-17T06:17:50.817Z,75.57
2023-05-17T06:18:51.517Z,75.73
2023-05-17T06:19:51.735Z,74.44
2023-05-17T06:20:50.700Z,77.18
2023-05-17T06:21:50.767Z,72.51
2023-05-17T06:22:50.688Z,75.09
2023-05-17T06:23:50.658Z,74.77
2023-05-17T06:24:50.646Z,72.99
2023-05-17T06:25:50.638Z,74.12
2023-05-17T06:26:50.642Z,74.60
2023-05-17T06:27:50.642Z,72.19
2023-05-17T06:28:51.593Z,73.48
2023-05-17T06:29:50.601Z,73.64
2023-05-17T06:30:50.586Z,74.77
2023-05-17T06:31:50.589Z,72.03
2023-05-17T06:32:50.687Z,72.51
2023-05-17T06:33:50.656Z,72.35
2023-05-17T06:34:50.544Z,72.03
2023-05-17T06:35:56.882Z,72.19
2023-05-17T06:36:52.631Z,73.96
2023-05-17T06:37:50.514Z,72.03
2023-05-17T06:38:50.496Z,75.57
2023-05-17T06:39:55.799Z,73.15
2023-05-17T06:40:52.487Z,73.80
2023-05-17T06:41:50.476Z,72.67
2023-05-17T06:42:50.470Z,72.35
2023-05-17T06:43:51.436Z,71.70
2023-05-17T06:44:50.449Z,72.67
2023-05-17T06:45:50.444Z,75.09
2023-05-17T06:46:50.424Z,74.44
2023-05-17T06:47:50.470Z,76.05
2023-05-17T06:48:51.505Z,74.44
2023-05-17T06:49:51.390Z,76.70
2023-05-17T06:50:50.387Z,72.99
2023-05-17T06:51:51.081Z,72.51
2023-05-17T06:52:50.733Z,72.51
2023-05-17T06:53:50.361Z,73.32
2023-05-17T06:54:50.363Z,72.03
2023-05-17T06:55:50.344Z,73.64
2023-05-17T06:56:50.322Z,73.80
2023-05-17T06:57:50.308Z,73.80
2023-05-17T06:58:50.329Z,74.44
2023-05-17T06:59:50.297Z,74.28
2023-05-17T07:00:50.346Z,73.32
2023-05-17T07:01:50.264Z,73.96
2023-05-17T07:02:50.360Z,72.83
2023-05-17T07:03:50.307Z,72.19
2023-05-17T07:04:50.269Z,72.99
2023-05-17T07:05:50.232Z,73.64
2023-05-17T07:06:50.220Z,76.38
2023-05-17T07:07:50.203Z,73.96
2023-05-17T07:08:51.105Z,72.51
2023-05-17T07:09:50.197Z,71.38
2023-05-17T07:10:50.176Z,70.90
2023-05-17T07:11:50.168Z,74.12
2023-05-17T07:12:50.166Z,73.96
2023-05-17T07:13:51.620Z,75.09
2023-05-17T07:14:50.165Z,72.83
2023-05-17T07:15:50.150Z,72.51
2023-05-17T07:16:50.122Z,73.80
2023-05-17T07:17:50.192Z,74.12
2023-05-17T07:18:50.162Z,73.32
2023-05-17T07:19:50.208Z,73.15
2023-05-17T07:20:50.071Z,73.15
2023-05-17T07:21:50.063Z,72.19
2023-05-17T07:22:50.052Z,72.35
2023-05-17T07:23:50.068Z,73.96
2023-05-17T07:24:50.096Z,73.64
2023-05-17T07:25:50.026Z,73.15
2023-05-17T07:26:52.148Z,73.15
2023-05-17T07:27:51.032Z,70.58
2023-05-17T07:28:50.593Z,72.83
2023-05-17T07:29:50.000Z,73.64
2023-05-17T07:30:49.981Z,73.80
2023-05-17T07:31:50.079Z,73.32
2023-05-17T07:32:50.014Z,71.70
2023-05-17T07:33:49.983Z,72.83
2023-05-17T07:34:49.945Z,72.51
2023-05-17T07:35:49.951Z,72.83
2023-05-17T07:36:49.914Z,73.64
2023-05-17T07:37:49.920Z,72.67
2023-05-17T07:38:49.892Z,71.54
2023-05-17T07:39:49.886Z,73.15
2023-05-17T07:40:49.954Z,71.70
2023-05-17T07:41:49.877Z,71.54
2023-05-17T07:42:49.866Z,72.19
2023-05-17T07:43:49.878Z,75.41
2023-05-17T07:44:49.874Z,72.03
2023-05-17T07:45:49.822Z,73.80
2023-05-17T07:46:49.869Z,74.28
2023-05-17T07:47:49.974Z,74.93
2023-05-17T07:48:49.921Z,73.64
2023-05-17T07:49:49.781Z,75.09
2023-05-17T07:50:49.804Z,73.32
2023-05-17T07:51:49.770Z,74.44
2023-05-17T07:52:49.753Z,73.15
2023-05-17T07:53:49.751Z,72.51
2023-05-17T07:54:50.589Z,70.42
2023-05-17T07:55:49.723Z,71.06
2023-05-17T07:56:49.780Z,73.32
2023-05-17T07:57:49.758Z,72.51
2023-05-17T07:58:49.792Z,74.28
2023-05-17T07:59:49.688Z,73.15
2023-05-17T08:00:50.687Z,72.19
2023-05-17T08:01:49.720Z,73.15
2023-05-17T08:02:49.699Z,72.67
2023-05-17T08:03:49.640Z,72.51
2023-05-17T08:04:50.618Z,73.80
2023-05-17T08:05:49.647Z,72.51
2023-05-17T08:06:50.623Z,73.32
2023-05-17T08:07:49.602Z,74.60
2023-05-17T08:08:49.587Z,72.99
2023-05-17T08:09:49.596Z,73.32
2023-05-17T08:10:49.578Z,73.64
2023-05-17T08:11:49.558Z,72.83
2023-05-17T08:12:49.674Z,75.25
2023-05-17T08:13:49.542Z,72.19
2023-05-17T08:14:49.553Z,72.83
2023-05-17T08:15:51.581Z,74.60
2023-05-17T08:16:49.509Z,74.28
2023-05-17T08:17:49.564Z,74.12
2023-05-17T08:18:49.588Z,73.96
2023-05-17T08:19:49.597Z,72.83
2023-05-17T08:20:49.462Z,74.77
2023-05-17T08:21:49.513Z,73.15
2023-05-17T08:22:49.441Z,70.42
2023-05-17T08:23:49.432Z,73.80
2023-05-17T08:24:49.442Z,73.48
2023-05-17T08:25:49.414Z,72.67
2023-05-17T08:26:49.404Z,71.87
2023-05-17T08:27:49.429Z,73.32
2023-05-17T08:28:49.420Z,74.28
2023-05-17T08:29:49.382Z,71.87
2023-05-17T08:30:49.357Z,74.44
2023-05-17T08:31:49.346Z,73.64
2023-05-17T08:32:49.389Z,72.51
2023-05-17T08:33:49.380Z,71.54
2023-05-17T08:34:49.343Z,72.99
2023-05-17T08:35:49.301Z,73.48
2023-05-17T08:36:50.029Z,73.80
2023-05-17T08:37:49.324Z,72.35
2023-05-17T08:38:49.310Z,72.51
2023-05-17T08:39:49.320Z,73.80
2023-05-17T08:40:49.257Z,72.35
2023-05-17T08:41:50.250Z,72.83
2023-05-17T08:42:49.249Z,75.41
2023-05-17T08:43:49.251Z,73.96
2023-05-17T08:44:49.229Z,73.48
2023-05-17T08:45:49.211Z,72.51
2023-05-17T08:46:49.191Z,73.32
2023-05-17T08:47:49.319Z,71.38
2023-05-17T08:48:49.266Z,72.67
2023-05-17T08:49:49.172Z,71.06
2023-05-17T08:50:49.157Z,70.74
2023-05-17T08:51:49.141Z,70.09
2023-05-17T08:52:49.149Z,70.74
2023-05-17T08:53:49.120Z,70.74
2023-05-17T08:54:49.109Z,73.15
2023-05-17T08:55:49.096Z,72.67
2023-05-17T08:56:49.090Z,72.03
2023-05-17T08:57:49.088Z,72.03
2023-05-17T08:58:56.192Z,70.58
2023-05-17T08:59:51.059Z,73.15
2023-05-17T09:00:49.043Z,72.67
2023-05-17T09:01:49.054Z,72.51
2023-05-17T09:02:49.113Z,74.28
2023-05-17T09:03:49.110Z,75.41
2023-05-17T09:04:49.089Z,72.67
2023-05-17T09:05:49.016Z,74.28
2023-05-17T09:06:49.019Z,74.44
2023-05-17T09:07:48.969Z,73.80
2023-05-17T09:08:48.963Z,74.60
2023-05-17T09:09:49.926Z,74.60
2023-05-17T09:10:48.940Z,72.19
2023-05-17T09:11:48.939Z,73.96
2023-05-17T09:12:48.917Z,73.80
2023-05-17T09:13:48.909Z,72.83
2023-05-17T09:14:48.901Z,74.60
2023-05-17T09:15:48.904Z,72.51
2023-05-17T09:16:48.895Z,72.99
2023-05-17T09:17:48.922Z,72.83
2023-05-17T09:18:48.993Z,71.06
2023-05-17T09:19:48.959Z,70.42
2023-05-17T09:20:48.847Z,69.93
2023-05-17T09:21:48.836Z,70.42
2023-05-17T09:22:48.820Z,72.51
2023-05-17T09:24:01.835Z,72.03
2023-05-17T09:24:50.800Z,71.22
2023-05-17T09:25:48.839Z,71.06
2023-05-17T09:26:48.775Z,71.38
2023-05-17T09:27:48.779Z,73.32
2023-05-17T09:28:48.755Z,73.80
2023-05-17T09:29:48.760Z,71.87
2023-05-17T09:30:48.748Z,72.99
2023-05-17T09:31:48.728Z,72.03
2023-05-17T09:33:48.725Z,71.54
2023-05-17T09:34:48.727Z,70.25
2023-05-17T09:35:48.688Z,72.99
2023-05-17T09:36:48.690Z,73.96
2023-05-17T09:37:48.657Z,70.74
2023-05-17T09:38:48.653Z,70.74
2023-05-17T09:39:48.650Z,72.03
2023-05-17T09:40:48.630Z,70.74
2023-05-17T09:41:48.624Z,70.74
2023-05-17T09:42:48.612Z,69.45
2023-05-17T09:43:48.624Z,69.29
2023-05-17T09:44:48.594Z,70.58
2023-05-17T09:45:48.577Z,71.87
2023-05-17T09:46:48.596Z,74.60
2023-05-17T09:47:48.605Z,74.12
2023-05-17T09:48:48.813Z,71.54
2023-05-17T09:49:48.535Z,71.06
2023-05-17T09:50:48.535Z,68.64
2023-05-17T09:51:48.521Z,69.93
2023-05-17T09:52:48.504Z,71.70
2023-05-17T09:53:48.506Z,72.35
2023-05-17T09:54:48.483Z,73.15
2023-05-17T09:55:48.521Z,72.83
2023-05-17T09:56:48.464Z,72.03
2023-05-17T09:57:48.469Z,69.93
2023-05-17T09:58:48.465Z,70.42
2023-05-17T09:59:48.429Z,73.32
2023-05-17T10:00:48.978Z,71.87
2023-05-17T10:01:48.414Z,72.51
2023-05-17T10:02:48.482Z,73.15
2023-05-17T10:03:48.492Z,72.35
2023-05-17T10:04:49.484Z,73.15
2023-05-17T10:05:48.370Z,72.03
2023-05-17T10:06:51.665Z,73.48
2023-05-17T10:07:49.374Z,73.96
2023-05-17T10:08:48.346Z,72.67
2023-05-17T10:09:48.334Z,72.19
2023-05-17T10:10:48.318Z,74.12
2023-05-17T10:11:48.322Z,73.96
2023-05-17T10:12:48.317Z,72.51
2023-05-17T10:13:48.289Z,72.35
2023-05-17T10:14:48.328Z,68.48
2023-05-17T10:15:48.311Z,69.13
2023-05-17T10:16:48.278Z,72.83
2023-05-17T10:17:48.286Z,70.74
2023-05-17T10:18:48.260Z,74.60
2023-05-17T10:19:48.417Z,74.28
2023-05-17T10:20:48.284Z,77.50
2023-05-17T10:21:48.222Z,74.77
2023-05-17T10:22:48.197Z,74.77
2023-05-17T10:23:48.183Z,73.96
2023-05-17T10:24:48.176Z,73.15
2023-05-17T10:25:48.175Z,73.32
2023-05-17T10:26:48.171Z,74.28
2023-05-17T10:27:48.143Z,73.96
2023-05-17T10:28:48.132Z,72.99
2023-05-17T10:29:50.356Z,71.54
2023-05-17T10:30:49.124Z,70.74
2023-05-17T10:31:48.098Z,72.67
2023-05-17T10:32:48.205Z,72.19
2023-05-17T10:33:48.125Z,73.32
2023-05-17T10:34:58.110Z,71.54
2023-05-17T10:35:50.079Z,75.57
2023-05-17T10:36:48.051Z,72.19
2023-05-17T10:37:48.051Z,71.38
2023-05-17T10:38:48.025Z,72.19
2023-05-17T10:39:48.032Z,72.19
2023-05-17T10:40:48.017Z,72.67
2023-05-17T10:41:48.574Z,73.64
2023-05-17T10:42:47.978Z,74.12
2023-05-17T10:43:47.979Z,73.32
2023-05-17T10:44:47.987Z,73.64
2023-05-17T10:45:47.952Z,73.80
2023-05-17T10:46:47.940Z,73.48
2023-05-17T10:47:47.950Z,72.51
2023-05-17T10:48:47.992Z,71.22
2023-05-17T10:49:48.073Z,72.51
2023-05-17T10:51:00.718Z,70.90
2023-05-17T10:51:49.906Z,69.77
2023-05-17T10:52:47.883Z,71.87
2023-05-17T10:53:47.889Z,69.13
2023-05-17T10:54:47.884Z,70.74
2023-05-17T10:55:47.850Z,68.96
2023-05-17T10:56:47.848Z,70.90
2023-05-17T10:57:51.438Z,70.25
2023-05-17T10:58:48.831Z,72.51
2023-05-17T10:59:47.811Z,72.35
2023-05-17T11:00:47.831Z,69.61
2023-05-17T11:01:47.794Z,72.99
2023-05-17T11:02:47.807Z,72.19
2023-05-17T11:03:47.805Z,71.06
2023-05-17T11:04:47.817Z,69.45
2023-05-17T11:05:48.137Z,69.61
2023-05-17T11:06:47.819Z,73.96
2023-05-17T11:07:47.762Z,76.22
2023-05-17T11:08:47.732Z,70.74
2023-05-17T11:09:47.719Z,73.32
2023-05-17T11:10:47.698Z,74.28
2023-05-17T11:11:47.706Z,75.41
2023-05-17T11:12:47.719Z,72.51
2023-05-17T11:13:47.671Z,71.22
2023-05-17T11:14:47.674Z,73.32
2023-05-17T11:15:47.652Z,72.51
2023-05-17T11:16:47.657Z,72.51
2023-05-17T11:17:47.672Z,72.35
2023-05-17T11:18:47.690Z,70.09
2023-05-17T11:19:47.665Z,71.54
2023-05-17T11:20:47.690Z,71.87
2023-05-17T11:21:47.605Z,68.48
2023-05-17T11:22:47.590Z,71.06
2023-05-17T11:23:47.588Z,68.96
2023-05-17T11:24:47.576Z,67.35
2023-05-17T11:25:47.565Z,68.16
2023-05-17T11:26:47.561Z,68.96
2023-05-17T11:27:47.534Z,71.87
2023-05-17T11:28:47.521Z,71.87
2023-05-17T11:29:47.511Z,68.48
2023-05-17T11:30:47.506Z,70.90
2023-05-17T11:31:47.498Z,70.09
2023-05-17T11:32:47.498Z,72.35
2023-05-17T11:33:47.513Z,72.19
2023-05-17T11:34:47.465Z,70.09
2023-05-17T11:35:47.456Z,73.64
2023-05-17T11:36:47.456Z,71.38
2023-05-17T11:37:47.434Z,69.45
2023-05-17T11:38:49.913Z,69.61
2023-05-17T11:39:47.441Z,69.45
2023-05-17T11:40:47.435Z,68.96
2023-05-17T11:41:47.422Z,66.55
2023-05-17T11:42:47.385Z,68.00
2023-05-17T11:43:47.377Z,69.45
2023-05-17T11:44:47.364Z,69.29
2023-05-17T11:45:47.367Z,67.51
2023-05-17T11:46:47.363Z,71.06
2023-05-17T11:47:47.423Z,71.38
2023-05-17T11:48:47.419Z,72.51
2023-05-17T11:49:47.359Z,72.19
2023-05-17T11:50:47.337Z,70.90
2023-05-17T11:51:47.300Z,70.90
2023-05-17T11:52:47.280Z,70.74
2023-05-17T11:53:47.289Z,72.19
2023-05-17T11:54:47.268Z,70.42
2023-05-17T11:55:47.293Z,70.09
2023-05-17T11:56:47.242Z,69.93
2023-05-17T11:57:47.242Z,68.96
2023-05-17T11:58:47.234Z,69.45
2023-05-17T11:59:47.306Z,69.45
2023-05-17T12:00:47.209Z,69.77
2023-05-17T12:01:47.192Z,69.29
2023-05-17T12:02:47.216Z,68.80
2023-05-17T12:03:47.168Z,69.77
2023-05-17T12:04:47.249Z,70.74
2023-05-17T12:05:47.172Z,69.45
2023-05-17T12:06:47.149Z,69.61
2023-05-17T12:07:47.137Z,72.03
2023-05-17T12:08:47.116Z,71.87
2023-05-17T12:09:47.132Z,70.58
2023-05-17T12:10:47.100Z,71.70
2023-05-17T12:11:47.100Z,72.51
2023-05-17T12:12:47.074Z,70.58
2023-05-17T12:13:47.103Z,70.58
2023-05-17T12:14:47.069Z,70.09
2023-05-17T12:15:47.042Z,69.93
2023-05-17T12:16:47.034Z,69.93
2023-05-17T12:17:48.738Z,69.77
2023-05-17T12:18:47.316Z,69.61
2023-05-17T12:19:47.087Z,70.25
2023-05-17T12:20:47.135Z,70.42
2023-05-17T12:21:46.985Z,72.03
2023-05-17T12:22:46.973Z,71.06
2023-05-17T12:23:49.593Z,71.22
2023-05-17T12:24:47.000Z,70.58
2023-05-17T12:25:46.941Z,70.09
2023-05-17T12:26:46.936Z,68.96
2023-05-17T12:27:46.980Z,80.24
2023-05-17T12:28:46.949Z,68.32
2023-05-17T12:29:46.915Z,72.83
2023-05-17T12:30:46.894Z,72.03
2023-05-17T12:31:46.887Z,71.38
2023-05-17T12:32:46.960Z,68.32
2023-05-17T12:33:46.955Z,70.09
2023-05-17T12:34:46.857Z,70.09
2023-05-17T12:35:46.843Z,70.74
2023-05-17T12:36:46.884Z,71.06
2023-05-17T12:37:46.833Z,70.74
2023-05-17T12:38:46.815Z,70.58
2023-05-17T12:39:46.802Z,69.45
2023-05-17T12:40:46.811Z,68.96
2023-05-17T12:41:46.789Z,68.80
2023-05-17T12:42:46.801Z,67.51
2023-05-17T12:43:46.777Z,70.25
2023-05-17T12:44:46.762Z,72.19
2023-05-17T12:45:46.744Z,69.93
2023-05-17T12:46:46.749Z,69.45
2023-05-17T12:47:46.745Z,68.96
2023-05-17T12:48:46.756Z,68.16
2023-05-17T12:49:46.712Z,69.45
2023-05-17T12:50:46.697Z,69.61
2023-05-17T12:51:46.707Z,69.29
2023-05-17T12:52:46.672Z,68.80
2023-05-17T12:53:46.661Z,70.42